Time;durP1;ratioP1;P1;durP2;ratioP2;P2;SDS_P1;SDS_P2;PMS_P1;PMS_P2;Temp;Humidity;BMP_temperature;BMP_pressure;BME280_temperature;BME280_humidity;BME280_pressure;Samples;Min_cycle;Max_cycle;Signal;HPM_P1;HPM_P2
2024/01/30 00:00:19;;;;;;;19.08;7.72;;;4.90;99.90;;;;;;5056220;28;20068;-73
2024/01/30 00:02:45;;;;;;;10.50;6.03;;;4.90;99.90;;;;;;5086186;28;20053;-73
2024/01/30 00:05:11;;;;;;;14.57;6.28;;;4.90;99.90;;;;;;5057740;28;20056;-73
2024/01/30 00:07:37;;;;;;;10.60;5.78;;;4.90;99.90;;;;;;5043232;28;20048;-73
2024/01/30 00:10:03;;;;;;;12.77;6.43;;;4.90;99.90;;;;;;5053023;28;20047;-73
2024/01/30 00:12:29;;;;;;;10.50;6.18;;;4.90;99.90;;;;;;5043791;28;20037;-73
2024/01/30 00:14:54;;;;;;;15.35;7.07;;;4.90;99.90;;;;;;5035280;28;20052;-73
2024/01/30 00:17:20;;;;;;;11.63;6.50;;;4.90;99.90;;;;;;5052179;28;20082;-73
2024/01/30 00:19:46;;;;;;;14.57;6.55;;;4.90;99.90;;;;;;5047771;28;20044;-73
2024/01/30 00:22:12;;;;;;;11.48;6.28;;;4.80;99.90;;;;;;5071379;28;20072;-74
2024/01/30 00:24:38;;;;;;;12.43;6.13;;;4.80;99.90;;;;;;5055452;28;20060;-74
2024/01/30 00:27:03;;;;;;;10.45;6.82;;;4.80;99.90;;;;;;5045572;28;20049;-73
2024/01/30 00:29:33;;;;;;;8.43;6.05;;;4.80;99.90;;;;;;5078245;28;20044;-74
2024/01/30 00:31:58;;;;;;;11.15;7.10;;;4.70;99.90;;;;;;5085280;28;20041;-74
2024/01/30 00:34:24;;;;;;;18.45;6.93;;;4.70;99.90;;;;;;5069227;28;20426;-73
2024/01/30 00:36:50;;;;;;;11.73;5.78;;;4.60;99.90;;;;;;5060634;28;20048;-73
2024/01/30 00:39:15;;;;;;;14.77;7.60;;;4.70;99.90;;;;;;5070177;28;20045;-74
2024/01/30 00:41:41;;;;;;;12.35;6.78;;;4.70;99.90;;;;;;5060315;28;20044;-73
2024/01/30 00:44:07;;;;;;;15.57;7.10;;;4.70;99.90;;;;;;5044945;28;20063;-73
2024/01/30 00:46:33;;;;;;;13.32;6.38;;;4.60;99.90;;;;;;5077282;28;20041;-74
2024/01/30 00:48:58;;;;;;;14.38;6.88;;;4.70;99.90;;;;;;5091904;28;20123;-74
2024/01/30 00:51:24;;;;;;;25.13;6.75;;;4.60;99.90;;;;;;5067332;28;20049;-73
2024/01/30 00:53:50;;;;;;;8.75;5.50;;;4.60;99.90;;;;;;5065138;28;20041;-73
2024/01/30 00:56:18;;;;;;;17.48;7.07;;;4.50;99.90;;;;;;5044062;28;20033;-73
2024/01/30 00:58:43;;;;;;;15.30;7.60;;;4.40;99.90;;;;;;5060983;28;20052;-73
2024/01/30 01:01:09;;;;;;;12.25;6.10;;;4.50;99.90;;;;;;5036335;28;20047;-73
2024/01/30 01:03:35;;;;;;;12.95;6.53;;;4.50;99.90;;;;;;5043738;28;20076;-73
2024/01/30 01:06:00;;;;;;;11.80;6.15;;;4.60;99.90;;;;;;5023281;28;20040;-74
2024/01/30 01:08:26;;;;;;;14.00;6.40;;;4.60;99.90;;;;;;5044109;28;20048;-73
2024/01/30 01:10:52;;;;;;;15.70;6.72;;;4.70;99.90;;;;;;5037656;28;20071;-73
2024/01/30 01:13:18;;;;;;;9.48;6.07;;;4.60;99.90;;;;;;5078938;28;20037;-73
2024/01/30 01:15:43;;;;;;;10.05;6.40;;;4.60;99.90;;;;;;5075787;28;20055;-74
2024/01/30 01:18:09;;;;;;;12.93;6.35;;;4.60;99.90;;;;;;5040564;28;20063;-73
2024/01/30 01:20:35;;;;;;;9.95;5.78;;;4.60;99.90;;;;;;5038455;28;20064;-73
2024/01/30 01:23:00;;;;;;;13.65;5.78;;;4.60;99.90;;;;;;5077308;28;20036;-73
2024/01/30 01:25:26;;;;;;;9.45;4.68;;;4.60;99.90;;;;;;5060062;28;20150;-74
2024/01/30 01:27:52;;;;;;;17.17;6.97;;;4.50;99.90;;;;;;5077610;28;20049;-73
2024/01/30 01:30:21;;;;;;;21.98;5.95;;;4.40;99.90;;;;;;5077476;28;20434;-74
2024/01/30 01:32:54;;;;;;;13.48;6.53;;;4.30;99.90;;;;;;5066176;28;20480;-74
2024/01/30 01:35:27;;;;;;;12.75;5.43;;;4.30;99.90;;;;;;5057749;28;20059;-74
2024/01/30 01:37:57;;;;;;;12.05;5.78;;;4.20;99.90;;;;;;5060998;28;20487;-74
2024/01/30 01:40:27;;;;;;;11.15;5.88;;;4.20;99.90;;;;;;5080965;28;20053;-74
2024/01/30 01:42:54;;;;;;;13.55;6.68;;;4.20;99.90;;;;;;5036005;28;20072;-74
2024/01/30 01:45:21;;;;;;;13.27;5.43;;;4.10;99.90;;;;;;5056586;28;20036;-73
2024/01/30 01:47:50;;;;;;;13.80;7.45;;;4.10;99.90;;;;;;5077372;28;20048;-73
2024/01/30 01:50:20;;;;;;;9.95;5.63;;;4.30;99.90;;;;;;5062701;28;20051;-73
2024/01/30 01:52:48;;;;;;;11.30;5.43;;;4.20;99.90;;;;;;5053657;28;20045;-73
2024/01/30 01:55:15;;;;;;;13.40;6.70;;;4.30;99.90;;;;;;5049511;28;20087;-74
2024/01/30 01:57:42;;;;;;;12.32;5.90;;;4.30;99.90;;;;;;5048282;28;20041;-73
2024/01/30 02:00:10;;;;;;;17.58;6.75;;;4.40;99.90;;;;;;5053374;28;20046;-74
2024/01/30 02:02:36;;;;;;;16.90;6.65;;;4.50;99.90;;;;;;5074270;28;20045;-73
2024/01/30 02:05:02;;;;;;;11.65;5.82;;;4.60;99.90;;;;;;5064226;28;20039;-74
2024/01/30 02:07:28;;;;;;;15.57;6.88;;;4.70;99.90;;;;;;5077828;28;20052;-73
2024/01/30 02:09:55;;;;;;;12.73;5.93;;;4.70;99.90;;;;;;5038103;28;20195;-74
2024/01/30 02:12:21;;;;;;;11.38;6.53;;;4.70;99.90;;;;;;5060919;28;20078;-74
2024/01/30 02:14:48;;;;;;;8.25;4.82;;;4.80;99.90;;;;;;5057549;28;20132;-73
2024/01/30 02:17:14;;;;;;;12.13;5.93;;;4.80;99.90;;;;;;5071917;28;20044;-73
2024/01/30 02:19:40;;;;;;;16.23;6.22;;;4.80;99.90;;;;;;5061781;28;20077;-74
2024/01/30 02:22:07;;;;;;;14.38;5.60;;;4.80;99.90;;;;;;5055920;28;20045;-74
2024/01/30 02:24:32;;;;;;;14.57;6.32;;;4.80;99.90;;;;;;5036787;28;20052;-74
2024/01/30 02:26:58;;;;;;;12.68;6.47;;;4.80;99.90;;;;;;5063719;28;20044;-74
2024/01/30 02:29:24;;;;;;;10.13;6.00;;;4.80;99.90;;;;;;5062892;28;20040;-74
2024/01/30 02:31:50;;;;;;;10.25;5.68;;;4.90;99.90;;;;;;5067133;28;20041;-74
2024/01/30 02:34:15;;;;;;;14.35;6.38;;;4.90;99.90;;;;;;5043167;28;20041;-74
2024/01/30 02:36:45;;;;;;;16.60;5.95;;;4.90;99.90;;;;;;5040634;28;20037;-75
2024/01/30 02:39:11;;;;;;;10.73;6.05;;;4.90;99.90;;;;;;5063613;28;20067;-74
2024/01/30 02:41:36;;;;;;;13.02;5.88;;;4.90;99.90;;;;;;5046993;28;20423;-75
2024/01/30 02:44:05;;;;;;;14.27;6.78;;;4.90;99.90;;;;;;5051486;28;20596;-74
2024/01/30 02:46:31;;;;;;;13.00;6.60;;;4.90;99.90;;;;;;5056880;28;20046;-74
2024/01/30 02:48:56;;;;;;;13.50;6.78;;;5.00;99.90;;;;;;5071500;28;20080;-74
2024/01/30 02:51:22;;;;;;;11.90;6.35;;;5.10;99.90;;;;;;5057887;28;20049;-75
2024/01/30 02:53:48;;;;;;;13.48;6.40;;;5.20;99.90;;;;;;5035390;28;20116;-75
2024/01/30 02:56:14;;;;;;;14.52;5.68;;;5.20;99.90;;;;;;5059365;28;20110;-74
2024/01/30 02:58:40;;;;;;;8.95;6.28;;;5.20;99.90;;;;;;5060862;28;20048;-75
2024/01/30 03:01:06;;;;;;;16.65;6.47;;;5.20;99.90;;;;;;5046651;28;20053;-74
2024/01/30 03:03:34;;;;;;;11.75;6.30;;;5.20;99.90;;;;;;5062595;28;20072;-75
2024/01/30 03:05:59;;;;;;;14.15;6.05;;;5.30;99.90;;;;;;5041352;28;20041;-75
2024/01/30 03:08:25;;;;;;;13.57;6.10;;;5.20;99.90;;;;;;5070150;28;20566;-74
2024/01/30 03:10:51;;;;;;;12.35;7.03;;;5.20;99.90;;;;;;5026610;28;20049;-75
2024/01/30 03:13:16;;;;;;;12.63;6.80;;;5.20;99.90;;;;;;5078092;28;20480;-75
2024/01/30 03:15:42;;;;;;;9.32;5.35;;;5.10;99.90;;;;;;5045639;28;20057;-74
2024/01/30 03:18:08;;;;;;;10.05;4.55;;;5.00;99.90;;;;;;5039325;28;20480;-74
2024/01/30 03:20:34;;;;;;;16.27;6.40;;;5.00;99.90;;;;;;5036283;28;20079;-74
2024/01/30 03:23:00;;;;;;;12.98;5.38;;;4.90;99.90;;;;;;5052768;28;20053;-74
2024/01/30 03:25:26;;;;;;;10.30;5.78;;;4.90;99.90;;;;;;5057234;28;20033;-75
2024/01/30 03:27:51;;;;;;;12.48;6.35;;;4.90;99.90;;;;;;5054254;28;20105;-75
2024/01/30 03:30:17;;;;;;;13.02;6.10;;;4.90;99.90;;;;;;5047243;28;20044;-74
2024/01/30 03:32:43;;;;;;;14.32;5.88;;;4.80;99.90;;;;;;5093300;28;20056;-74
2024/01/30 03:35:09;;;;;;;12.93;5.75;;;4.80;99.90;;;;;;5057777;28;20036;-74
2024/01/30 03:37:35;;;;;;;16.63;5.75;;;5.00;99.90;;;;;;5057472;28;20048;-74
2024/01/30 03:40:02;;;;;;;11.15;5.80;;;5.00;99.90;;;;;;5055950;28;20041;-74
2024/01/30 03:42:28;;;;;;;8.60;5.63;;;5.20;99.90;;;;;;5052462;28;20127;-74
2024/01/30 03:44:54;;;;;;;16.67;6.25;;;5.20;99.90;;;;;;5041759;28;20049;-75
2024/01/30 03:47:21;;;;;;;12.55;5.32;;;5.30;99.90;;;;;;5068016;28;20053;-75
2024/01/30 03:49:46;;;;;;;12.07;6.20;;;5.40;99.90;;;;;;5057700;28;20040;-74
2024/01/30 03:52:12;;;;;;;10.02;5.95;;;5.40;99.90;;;;;;5058354;28;20040;-75
2024/01/30 03:54:38;;;;;;;18.15;6.07;;;5.50;99.90;;;;;;5064472;28;20054;-75
2024/01/30 03:57:04;;;;;;;13.18;4.82;;;5.60;99.90;;;;;;5055121;28;20040;-75
2024/01/30 03:59:29;;;;;;;12.15;5.82;;;5.60;99.90;;;;;;5065038;28;20076;-75
2024/01/30 04:01:55;;;;;;;10.80;5.55;;;5.70;99.90;;;;;;5047331;28;20040;-75
2024/01/30 04:04:21;;;;;;;8.27;5.20;;;5.70;99.90;;;;;;5041337;28;20111;-75
2024/01/30 04:06:47;;;;;;;11.10;5.05;;;5.70;99.90;;;;;;5063175;28;20045;-75
2024/01/30 04:09:14;;;;;;;11.85;5.50;;;5.80;99.90;;;;;;5039585;28;20114;-75
2024/01/30 04:11:41;;;;;;;11.57;6.28;;;5.80;99.90;;;;;;5058971;28;20072;-75
2024/01/30 04:14:07;;;;;;;10.95;5.60;;;5.80;99.90;;;;;;5061882;28;20400;-75
2024/01/30 04:16:33;;;;;;;11.65;6.10;;;5.80;99.90;;;;;;5048883;28;20128;-75
2024/01/30 04:18:59;;;;;;;11.02;5.10;;;5.80;99.90;;;;;;5051670;28;20563;-75
2024/01/30 04:21:24;;;;;;;13.73;5.68;;;5.80;99.90;;;;;;5044840;28;20082;-75
2024/01/30 04:23:51;;;;;;;12.48;5.45;;;5.80;99.90;;;;;;5069195;28;20033;-75
2024/01/30 04:26:17;;;;;;;9.57;5.25;;;5.80;99.90;;;;;;5069980;28;20057;-75
2024/01/30 04:28:44;;;;;;;11.25;5.20;;;5.90;99.90;;;;;;5034058;28;20481;-75
2024/01/30 04:31:11;;;;;;;13.32;5.75;;;5.90;99.90;;;;;;5048855;28;20076;-75
2024/01/30 04:33:37;;;;;;;9.73;5.07;;;5.90;99.90;;;;;;5064162;28;20056;-75
2024/01/30 04:36:03;;;;;;;13.10;6.43;;;5.90;99.90;;;;;;5061539;28;20048;-75
2024/01/30 04:38:29;;;;;;;12.88;6.13;;;5.90;99.90;;;;;;5075511;28;20094;-75
2024/01/30 04:40:55;;;;;;;12.80;5.88;;;6.00;99.90;;;;;;5061168;28;20374;-75
2024/01/30 04:43:21;;;;;;;11.93;6.07;;;6.00;99.90;;;;;;5094672;28;20419;-75
2024/01/30 04:45:47;;;;;;;7.85;4.63;;;6.00;99.90;;;;;;5061160;28;20041;-75
2024/01/30 04:48:13;;;;;;;11.40;5.25;;;6.00;99.90;;;;;;5050359;28;20048;-75
2024/01/30 04:50:39;;;;;;;11.75;5.53;;;6.00;99.90;;;;;;5044283;28;20055;-75
2024/01/30 04:53:05;;;;;;;6.30;4.85;;;5.90;99.90;;;;;;5044742;28;20036;-75
2024/01/30 04:55:30;;;;;;;14.95;5.75;;;5.90;99.90;;;;;;5060661;28;20051;-75
2024/01/30 04:57:56;;;;;;;10.05;5.07;;;5.90;99.90;;;;;;5061236;28;20040;-75
2024/01/30 05:00:21;;;;;;;9.02;4.85;;;5.90;99.90;;;;;;5038860;28;20072;-75
2024/01/30 05:02:47;;;;;;;13.93;5.50;;;6.00;99.90;;;;;;5077641;28;20571;-75
2024/01/30 05:05:13;;;;;;;12.00;5.40;;;6.00;99.90;;;;;;5031587;28;20045;-75
2024/01/30 05:07:41;;;;;;;11.25;5.60;;;6.00;99.90;;;;;;5041084;28;20481;-75
2024/01/30 05:10:08;;;;;;;9.57;6.03;;;6.00;99.90;;;;;;5036272;28;20048;-75
2024/01/30 05:12:34;;;;;;;19.63;7.00;;;6.10;99.90;;;;;;5057744;28;20064;-75
2024/01/30 05:14:59;;;;;;;8.18;4.60;;;6.10;99.90;;;;;;5015631;28;20045;-75
2024/01/30 05:17:25;;;;;;;11.88;5.85;;;6.20;99.90;;;;;;5027690;28;20040;-75
2024/01/30 05:19:51;;;;;;;13.80;5.78;;;6.20;99.90;;;;;;5077785;28;20032;-75
2024/01/30 05:22:18;;;;;;;11.85;6.25;;;6.30;99.90;;;;;;5034891;28;20038;-75
2024/01/30 05:24:44;;;;;;;9.02;5.18;;;6.30;99.90;;;;;;5045446;28;20071;-75
2024/01/30 05:27:10;;;;;;;15.35;6.10;;;6.30;99.90;;;;;;5045767;28;20048;-75
2024/01/30 05:29:36;;;;;;;14.70;4.85;;;6.30;99.90;;;;;;5055538;28;20041;-75
2024/01/30 05:32:02;;;;;;;11.05;4.97;;;6.40;99.90;;;;;;5067507;28;20096;-75
2024/01/30 05:34:28;;;;;;;10.05;5.35;;;6.30;99.90;;;;;;5035901;28;20076;-75
2024/01/30 05:36:54;;;;;;;11.40;5.72;;;6.20;99.90;;;;;;5058654;28;20049;-75
2024/01/30 05:39:19;;;;;;;11.27;5.32;;;6.20;99.90;;;;;;5019439;28;20339;-75
2024/01/30 05:41:45;;;;;;;15.45;6.07;;;6.20;99.90;;;;;;5067603;28;20041;-75
2024/01/30 05:44:11;;;;;;;9.98;4.93;;;6.20;99.90;;;;;;5061340;28;20045;-75
2024/01/30 05:46:36;;;;;;;13.07;4.97;;;6.30;99.90;;;;;;5075878;28;20094;-74
2024/01/30 05:49:02;;;;;;;14.50;6.35;;;6.30;99.90;;;;;;5056831;28;20127;-74
2024/01/30 05:51:28;;;;;;;9.05;4.75;;;6.30;99.90;;;;;;5067492;28;20060;-75
2024/01/30 05:53:54;;;;;;;12.23;5.50;;;6.40;99.90;;;;;;5064712;28;20099;-75
2024/01/30 05:56:19;;;;;;;10.00;4.93;;;6.30;99.90;;;;;;5043706;28;20048;-75
2024/01/30 05:58:45;;;;;;;11.48;5.72;;;6.30;99.90;;;;;;5061462;28;20049;-74
2024/01/30 06:01:11;;;;;;;10.30;5.90;;;6.40;99.90;;;;;;5047908;28;20104;-74
2024/01/30 06:03:37;;;;;;;11.85;4.82;;;6.40;99.90;;;;;;5043060;28;20076;-75
2024/01/30 06:06:02;;;;;;;10.07;4.53;;;6.40;99.90;;;;;;5048484;28;20156;-75
2024/01/30 06:08:28;;;;;;;10.13;4.50;;;6.40;99.90;;;;;;5017080;28;20158;-75
2024/01/30 06:10:54;;;;;;;9.48;4.45;;;6.50;99.90;;;;;;5043651;28;20104;-74
2024/01/30 06:13:20;;;;;;;9.05;4.68;;;6.50;99.90;;;;;;5026737;28;20037;-75
2024/01/30 06:15:46;;;;;;;8.80;4.07;;;6.60;99.90;;;;;;5057441;28;20036;-75
2024/01/30 06:18:11;;;;;;;8.95;4.28;;;6.60;99.90;;;;;;5080375;28;20060;-75
2024/01/30 06:20:37;;;;;;;15.57;6.05;;;6.60;99.90;;;;;;5079803;28;20126;-75
2024/01/30 06:23:03;;;;;;;10.82;5.32;;;6.70;99.90;;;;;;5059997;28;20064;-75
2024/01/30 06:25:29;;;;;;;10.15;4.60;;;6.70;99.90;;;;;;5045526;28;20052;-74
2024/01/30 06:27:54;;;;;;;8.52;4.35;;;6.80;99.90;;;;;;5057066;28;20132;-75
2024/01/30 06:30:20;;;;;;;11.43;4.50;;;6.80;99.90;;;;;;5057727;28;20055;-75
2024/01/30 06:32:46;;;;;;;12.77;4.95;;;6.80;99.90;;;;;;5057356;28;20079;-75
2024/01/30 06:35:12;;;;;;;13.85;5.20;;;6.90;99.90;;;;;;5044750;28;20029;-75
2024/01/30 06:37:38;;;;;;;10.05;4.95;;;7.00;99.90;;;;;;5079611;28;20104;-75
2024/01/30 06:40:05;;;;;;;9.20;5.07;;;7.00;99.90;;;;;;5048235;28;20068;-75
2024/01/30 06:42:30;;;;;;;11.40;5.20;;;7.00;99.90;;;;;;5063149;28;20052;-75
2024/01/30 06:44:56;;;;;;;11.27;4.93;;;7.10;99.90;;;;;;5067541;28;20043;-75
2024/01/30 06:47:22;;;;;;;11.43;4.95;;;7.20;99.90;;;;;;5036932;28;20038;-74
2024/01/30 06:49:47;;;;;;;10.30;5.35;;;7.20;99.90;;;;;;5042318;28;20048;-75
2024/01/30 06:52:14;;;;;;;9.05;4.82;;;7.20;99.90;;;;;;5055352;28;20052;-74
2024/01/30 06:54:39;;;;;;;10.68;5.05;;;7.20;99.90;;;;;;5055477;28;20044;-75
2024/01/30 06:57:08;;;;;;;12.63;5.15;;;7.30;99.90;;;;;;5049252;28;20396;-75
2024/01/30 06:59:34;;;;;;;10.88;5.18;;;7.20;99.90;;;;;;5044291;28;20487;-75
2024/01/30 07:02:00;;;;;;;12.50;5.32;;;7.30;99.90;;;;;;5058946;28;20045;-74
2024/01/30 07:04:26;;;;;;;13.02;5.50;;;7.20;99.90;;;;;;5024566;28;20078;-74
2024/01/30 07:06:53;;;;;;;12.07;5.15;;;7.30;99.90;;;;;;5065808;28;20106;-74
2024/01/30 07:09:19;;;;;;;11.15;4.80;;;7.30;99.90;;;;;;5052662;28;21975;-75
2024/01/30 07:11:44;;;;;;;8.98;4.13;;;7.30;99.90;;;;;;5054209;28;20104;-74
2024/01/30 07:14:10;;;;;;;9.88;4.63;;;7.30;99.90;;;;;;5067344;28;20068;-75
2024/01/30 07:16:36;;;;;;;8.93;5.35;;;7.30;99.90;;;;;;5052307;28;20055;-75
2024/01/30 07:19:02;;;;;;;8.80;4.88;;;7.30;99.90;;;;;;5020450;28;20705;-74
2024/01/30 07:21:28;;;;;;;6.78;4.20;;;7.30;99.90;;;;;;5069424;28;20048;-74
2024/01/30 07:23:55;;;;;;;11.45;4.75;;;7.40;99.90;;;;;;5055797;28;20076;-74
2024/01/30 07:26:20;;;;;;;10.55;4.72;;;7.40;99.90;;;;;;5024517;28;20037;-74
2024/01/30 07:28:46;;;;;;;11.10;4.85;;;7.40;99.90;;;;;;5040388;28;20086;-74
2024/01/30 07:31:12;;;;;;;12.40;4.63;;;7.40;99.90;;;;;;5055240;28;20041;-74
2024/01/30 07:33:38;;;;;;;10.18;5.00;;;7.40;99.90;;;;;;5037521;28;20045;-74
2024/01/30 07:36:04;;;;;;;13.05;5.30;;;7.40;99.90;;;;;;5042540;28;20071;-74
2024/01/30 07:38:32;;;;;;;11.43;4.85;;;7.50;99.90;;;;;;5039731;28;20037;-85
2024/01/30 07:40:57;;;;;;;13.38;5.95;;;7.50;99.90;;;;;;5035705;28;20065;-83
2024/01/30 07:43:23;;;;;;;10.40;4.97;;;7.50;99.90;;;;;;5038770;28;20126;-74
2024/01/30 07:45:49;;;;;;;9.27;5.03;;;7.50;99.90;;;;;;5054908;28;20040;-74
2024/01/30 07:48:14;;;;;;;10.10;4.90;;;7.50;99.90;;;;;;5037740;28;20926;-74
2024/01/30 07:50:40;;;;;;;10.80;4.47;;;7.50;99.90;;;;;;5052965;28;20135;-74
2024/01/30 07:53:06;;;;;;;9.60;4.10;;;7.50;99.90;;;;;;5054107;28;20051;-74
2024/01/30 07:55:32;;;;;;;7.75;3.75;;;7.50;99.90;;;;;;5018543;28;20471;-74
2024/01/30 07:58:01;;;;;;;11.55;5.18;;;7.50;99.90;;;;;;5035542;28;20406;-74
2024/01/30 08:00:28;;;;;;;10.85;5.38;;;7.60;99.90;;;;;;5071702;28;20415;-74
2024/01/30 08:02:55;;;;;;;9.68;5.03;;;7.60;99.90;;;;;;5053686;28;20044;-74
2024/01/30 08:05:22;;;;;;;10.45;4.78;;;7.60;99.90;;;;;;5039732;28;20038;-74
2024/01/30 08:07:48;;;;;;;10.73;4.88;;;7.70;99.90;;;;;;5066073;28;20080;-74
2024/01/30 08:10:15;;;;;;;11.77;4.22;;;7.70;99.90;;;;;;5058739;28;20061;-74
2024/01/30 08:12:41;;;;;;;10.05;4.43;;;7.70;99.90;;;;;;5046128;28;20038;-74
2024/01/30 08:15:07;;;;;;;6.22;3.47;;;7.80;99.90;;;;;;5049880;28;20045;-74
2024/01/30 08:17:34;;;;;;;10.27;4.30;;;7.80;99.90;;;;;;5068043;28;20056;-74
2024/01/30 08:19:59;;;;;;;9.55;4.93;;;7.80;99.90;;;;;;5040523;28;20075;-75
2024/01/30 08:22:25;;;;;;;8.55;4.68;;;7.90;99.90;;;;;;5019350;28;20041;-74
2024/01/30 08:24:51;;;;;;;8.85;4.60;;;7.90;99.90;;;;;;5056443;28;20105;-74
2024/01/30 08:27:17;;;;;;;10.05;4.63;;;7.90;99.90;;;;;;5046344;28;20048;-74
2024/01/30 08:29:42;;;;;;;12.55;4.93;;;8.00;99.90;;;;;;5042593;28;20134;-74
2024/01/30 08:32:08;;;;;;;10.30;5.32;;;8.00;99.90;;;;;;5049973;28;20119;-74
2024/01/30 08:34:34;;;;;;;13.00;5.15;;;8.00;99.90;;;;;;5059369;28;20048;-75
2024/01/30 08:36:59;;;;;;;9.13;4.45;;;8.00;99.90;;;;;;5033905;28;20067;-75
2024/01/30 08:39:25;;;;;;;7.28;4.25;;;8.10;99.90;;;;;;5034191;28;20045;-75
2024/01/30 08:41:51;;;;;;;11.30;6.05;;;8.10;99.90;;;;;;5036918;28;20049;-75
2024/01/30 08:44:17;;;;;;;10.20;4.80;;;8.10;99.90;;;;;;5053026;28;20550;-75
2024/01/30 08:46:46;;;;;;;8.57;4.55;;;8.10;99.90;;;;;;5034578;28;20056;-75
2024/01/30 08:49:13;;;;;;;8.95;4.32;;;8.20;99.90;;;;;;5054043;28;20395;-75
2024/01/30 08:51:39;;;;;;;8.68;4.28;;;8.10;99.90;;;;;;5034077;28;20040;-75
2024/01/30 08:54:05;;;;;;;13.55;5.07;;;8.20;99.90;;;;;;5036524;28;20050;-75
2024/01/30 08:56:30;;;;;;;10.00;4.55;;;8.20;99.90;;;;;;5048901;28;20103;-75
2024/01/30 08:58:56;;;;;;;9.75;4.15;;;8.20;99.90;;;;;;5053701;28;20063;-75
2024/01/30 09:01:22;;;;;;;7.53;4.10;;;8.30;99.90;;;;;;5056763;28;20053;-75
2024/01/30 09:03:47;;;;;;;11.23;4.43;;;8.30;99.90;;;;;;5022234;28;20081;-75
2024/01/30 09:06:13;;;;;;;8.13;4.32;;;8.30;99.90;;;;;;5039380;28;20080;-75
2024/01/30 09:08:39;;;;;;;8.25;4.55;;;8.30;99.90;;;;;;5057157;28;20060;-75
2024/01/30 09:11:15;;;;;;;8.32;4.63;;;8.40;99.90;;;;;;5055665;28;20048;-75
2024/01/30 09:13:41;;;;;;;9.93;4.53;;;8.40;99.90;;;;;;5071360;28;20041;-75
2024/01/30 09:16:07;;;;;;;7.72;4.43;;;8.50;99.90;;;;;;5055614;28;20033;-75
2024/01/30 09:18:33;;;;;;;5.75;4.15;;;8.50;99.90;;;;;;5039923;28;20064;-75
2024/01/30 09:20:59;;;;;;;8.98;4.55;;;8.60;99.90;;;;;;5055716;28;20040;-75
2024/01/30 09:23:25;;;;;;;9.45;4.10;;;8.60;99.90;;;;;;5055399;28;20104;-75
2024/01/30 09:25:50;;;;;;;11.27;4.65;;;8.70;99.90;;;;;;5056125;28;20151;-75
2024/01/30 09:28:19;;;;;;;10.75;5.20;;;8.80;99.90;;;;;;5056058;28;20746;-75
2024/01/30 09:30:45;;;;;;;8.80;4.38;;;8.80;99.90;;;;;;5039980;28;20044;-75
2024/01/30 09:33:10;;;;;;;8.00;4.68;;;8.90;99.90;;;;;;5038239;28;20048;-75
2024/01/30 09:35:36;;;;;;;12.10;3.90;;;8.90;99.90;;;;;;5026935;28;20040;-75
2024/01/30 09:38:02;;;;;;;9.55;4.65;;;9.00;99.90;;;;;;5055205;28;20049;-75
2024/01/30 09:40:28;;;;;;;10.10;4.88;;;9.10;99.90;;;;;;5056584;28;20045;-75
2024/01/30 09:42:55;;;;;;;10.90;4.75;;;9.10;99.90;;;;;;5038796;28;20044;-75
2024/01/30 09:45:24;;;;;;;7.85;3.85;;;9.20;99.90;;;;;;5046795;28;20048;-75
2024/01/30 09:47:50;;;;;;;10.63;4.78;;;9.20;99.90;;;;;;5054519;28;20515;-75
2024/01/30 09:50:16;;;;;;;7.40;3.75;;;9.30;99.90;;;;;;5036317;28;20064;-75
2024/01/30 09:52:46;;;;;;;14.05;4.70;;;9.30;99.90;;;;;;5021313;28;20149;-75
2024/01/30 09:55:13;;;;;;;10.93;4.75;;;9.40;99.90;;;;;;5059705;28;20071;-76
2024/01/30 09:57:39;;;;;;;8.15;4.15;;;9.50;99.90;;;;;;5057634;28;20053;-75
2024/01/30 10:00:09;;;;;;;9.80;4.40;;;9.50;99.90;;;;;;5056845;28;20526;-76
2024/01/30 10:02:35;;;;;;;8.48;4.63;;;9.60;99.90;;;;;;5056473;28;20053;-76
2024/01/30 10:05:01;;;;;;;16.13;4.55;;;9.60;99.90;;;;;;5052835;28;20048;-75
2024/01/30 10:07:27;;;;;;;12.38;4.55;;;9.60;99.90;;;;;;5055649;28;20041;-76
2024/01/30 10:09:56;;;;;;;8.13;4.28;;;9.70;99.90;;;;;;5055802;28;20143;-76
2024/01/30 10:12:22;;;;;;;9.63;4.40;;;9.70;99.90;;;;;;5055148;28;20603;-76
2024/01/30 10:14:48;;;;;;;9.75;4.18;;;9.70;99.90;;;;;;5023906;28;20044;-76
2024/01/30 10:17:14;;;;;;;15.15;4.82;;;9.80;99.90;;;;;;5055312;28;20076;-76
2024/01/30 10:19:40;;;;;;;15.68;4.85;;;9.80;99.90;;;;;;5039297;28;20087;-76
2024/01/30 10:22:06;;;;;;;7.45;3.92;;;9.80;99.90;;;;;;5073686;28;20053;-75
2024/01/30 10:24:33;;;;;;;10.68;4.03;;;9.80;99.90;;;;;;5057615;28;20049;-75
2024/01/30 10:26:59;;;;;;;7.72;4.32;;;9.80;99.90;;;;;;5054830;28;20033;-76
2024/01/30 10:29:26;;;;;;;8.90;5.03;;;9.90;99.90;;;;;;5055185;28;20044;-75
2024/01/30 10:32:02;;;;;;;6.45;4.60;;;10.00;99.90;;;;;;5056726;28;20045;-75
2024/01/30 10:34:28;;;;;;;8.90;4.18;;;10.00;99.90;;;;;;5038843;28;20049;-76
2024/01/30 10:37:05;;;;;;;8.98;4.57;;;10.10;99.90;;;;;;5055656;28;20118;-76
2024/01/30 10:39:36;;;;;;;9.23;4.55;;;10.10;99.90;;;;;;5038180;28;20446;-75
2024/01/30 10:42:05;;;;;;;8.60;3.72;;;10.10;99.90;;;;;;5057846;28;20091;-76
2024/01/30 10:45:03;;;;;;;10.18;4.00;;;10.20;99.90;;;;;;5059740;28;20048;-76
2024/01/30 10:47:29;;;;;;;9.52;4.47;;;10.20;99.90;;;;;;5055377;28;20520;-77
2024/01/30 10:49:56;;;;;;;7.80;3.95;;;10.30;99.90;;;;;;5056676;28;20102;-75
2024/01/30 10:52:27;;;;;;;9.27;3.88;;;10.40;99.90;;;;;;5054219;28;20086;-77
2024/01/30 10:54:54;;;;;;;8.63;4.00;;;10.40;99.90;;;;;;5056274;28;20389;-76
2024/01/30 10:57:23;;;;;;;15.77;4.75;;;10.40;99.90;;;;;;5054292;28;20037;-76
2024/01/30 10:59:51;;;;;;;11.13;3.53;;;10.50;99.90;;;;;;5056298;28;20029;-78
2024/01/30 11:02:17;;;;;;;18.60;4.63;;;10.40;99.90;;;;;;5042389;28;20052;-76
2024/01/30 11:04:44;;;;;;;11.27;5.20;;;10.40;99.90;;;;;;5039608;28;20040;-76
2024/01/30 11:07:20;;;;;;;9.52;4.68;;;10.40;99.90;;;;;;5057348;28;20060;-75
2024/01/30 11:09:54;;;;;;;8.18;4.75;;;10.40;99.90;;;;;;5055388;28;20152;-75
2024/01/30 11:12:26;;;;;;;9.38;3.97;;;10.40;99.90;;;;;;5054954;28;20045;-76
2024/01/30 11:15:06;;;;;;;13.77;6.15;;;10.40;99.90;;;;;;5052896;28;20056;-76
2024/01/30 11:17:44;;;;;;;10.55;4.32;;;10.40;99.90;;;;;;5036513;28;20082;-76
2024/01/30 11:20:21;;;;;;;6.95;4.55;;;10.50;99.90;;;;;;5053872;28;20070;-76
2024/01/30 11:22:50;;;;;;;20.35;6.07;;;10.50;99.90;;;;;;5067522;28;20059;-75
2024/01/30 11:25:18;;;;;;;11.13;4.55;;;10.50;99.90;;;;;;5046084;28;20080;-76
2024/01/30 11:27:44;;;;;;;16.08;5.35;;;10.60;99.90;;;;;;5053872;28;20045;-75
2024/01/30 11:30:20;;;;;;;6.82;4.40;;;10.60;99.90;;;;;;5037500;28;20052;-74
2024/01/30 11:32:46;;;;;;;10.73;4.95;;;10.70;99.90;;;;;;5039821;28;20045;-75
2024/01/30 11:35:12;;;;;;;11.15;5.25;;;10.70;99.90;;;;;;5023650;28;20118;-75
2024/01/30 11:37:40;;;;;;;12.27;5.53;;;10.80;99.90;;;;;;5055463;28;20041;-76
2024/01/30 11:40:08;;;;;;;8.63;5.68;;;10.80;99.90;;;;;;5057058;28;20043;-75
2024/01/30 11:42:36;;;;;;;11.77;5.53;;;10.80;99.90;;;;;;5059063;28;20609;-75
2024/01/30 11:45:02;;;;;;;13.13;4.35;;;10.90;99.90;;;;;;5039089;28;20041;-76
2024/01/30 11:47:29;;;;;;;6.72;4.38;;;11.00;99.90;;;;;;5054471;28;20049;-76
2024/01/30 11:49:54;;;;;;;8.77;4.63;;;11.10;99.90;;;;;;5020689;28;20096;-76
2024/01/30 11:52:20;;;;;;;9.70;4.80;;;11.20;99.90;;;;;;5037772;28;20049;-76
2024/01/30 11:54:46;;;;;;;7.95;3.90;;;11.20;99.90;;;;;;5053850;28;20041;-76
2024/01/30 11:57:12;;;;;;;12.68;5.20;;;11.30;99.90;;;;;;5073960;28;20403;-76
2024/01/30 11:59:37;;;;;;;13.52;5.15;;;11.30;99.90;;;;;;5036673;28;20041;-76
2024/01/30 12:02:04;;;;;;;15.43;4.60;;;11.40;99.90;;;;;;5037450;28;20057;-75
2024/01/30 12:04:30;;;;;;;8.73;3.97;;;11.40;99.90;;;;;;5053341;28;20119;-76
2024/01/30 12:06:56;;;;;;;9.85;4.40;;;11.40;99.90;;;;;;5036990;28;20483;-75
2024/01/30 12:09:22;;;;;;;8.18;4.30;;;11.50;99.90;;;;;;5054414;28;20106;-76
2024/01/30 12:11:52;;;;;;;6.90;4.35;;;11.50;99.90;;;;;;5034402;28;20606;-76
2024/01/30 12:14:19;;;;;;;8.40;3.90;;;11.50;99.90;;;;;;5046568;28;20041;-76
2024/01/30 12:16:49;;;;;;;8.07;4.47;;;11.60;99.90;;;;;;5035170;28;20100;-76
2024/01/30 12:19:22;;;;;;;8.35;5.03;;;11.50;99.90;;;;;;5051390;28;20056;-77
2024/01/30 12:21:58;;;;;;;10.77;4.03;;;11.50;99.90;;;;;;5052505;28;20037;-76
2024/01/30 12:24:25;;;;;;;14.35;4.65;;;11.40;99.90;;;;;;5057184;28;20044;-76
2024/01/30 12:26:51;;;;;;;13.52;4.32;;;11.40;99.90;;;;;;5038421;28;20068;-76
2024/01/30 12:29:17;;;;;;;14.77;4.50;;;11.30;99.90;;;;;;5054374;28;20571;-76
2024/01/30 12:31:44;;;;;;;12.77;6.75;;;11.30;99.90;;;;;;5054951;28;20068;-76
2024/01/30 12:34:13;;;;;;;6.35;3.42;;;11.30;99.90;;;;;;5053862;28;20048;-76
2024/01/30 12:36:39;;;;;;;9.02;3.90;;;11.30;99.90;;;;;;5054055;28;21222;-76
2024/01/30 12:39:04;;;;;;;8.63;4.10;;;11.20;99.90;;;;;;5052020;28;20041;-77
2024/01/30 12:41:30;;;;;;;8.18;3.95;;;11.30;99.90;;;;;;5033932;28;20037;-76
2024/01/30 12:43:59;;;;;;;7.10;2.92;;;11.30;99.90;;;;;;5035956;28;20059;-76